Time;durP1;ratioP1;P1;durP2;ratioP2;P2;SDS_P1;SDS_P2;PMS_P1;PMS_P2;Temp;Humidity;BMP_temperature;BMP_pressure;BME280_temperature;BME280_humidity;BME280_pressure;Samples;Min_cycle;Max_cycle;Signal;HPM_P1;HPM_P2
2022/06/06 00:00:53;;;;;;;;;;;;;;;23.01;66.59;100213.31;2036555;28;20027;-57
2022/06/06 00:01:54;;;;;;;;;;;;;;;23.00;66.65;100214.53;2038403;28;19918;-57
2022/06/06 00:02:54;;;;;;;;;;;;;;;22.99;66.95;100199.97;2036461;28;20042;-57
2022/06/06 00:03:55;;;;;;;;;;;;;;;22.99;67.00;100194.44;2037590;29;19911;-57
2022/06/06 00:04:56;;;;;;;;;;;;;;;23.00;67.08;100211.78;2037071;28;19914;-57
2022/06/06 00:05:58;;;;;;;;;;;;;;;22.99;67.25;100202.72;2040224;28;19913;-57
2022/06/06 00:06:59;;;;;;;;;;;;;;;22.98;67.63;100201.16;2029613;29;19917;-57
2022/06/06 00:07:59;;;;;;;;;;;;;;;22.99;67.64;100194.44;2029921;29;19921;-57
2022/06/06 00:09:00;;;;;;;;;;;;;;;23.00;67.35;100195.97;2038016;28;20643;-57
2022/06/06 00:10:00;;;;;;;;;;;;;;;23.00;66.73;100192.44;2036897;29;19914;-57
2022/06/06 00:11:02;;;;;;;;;;;;;;;22.99;66.76;100185.38;2027411;29;19915;-57
2022/06/06 00:12:04;;;;;;;;;;;;;;;22.98;66.31;100181.81;2030127;29;20353;-57
2022/06/06 00:13:05;;;;;;;;;;;;;;;22.99;66.10;100185.38;2035005;28;19914;-57
2022/06/06 00:14:06;;;;;;;;;;;;;;;22.96;66.00;100191.75;2036441;28;19910;-57
2022/06/06 00:15:07;;;;;;;;;;;;;;;22.95;66.38;100190.97;2038385;29;20303;-57
2022/06/06 00:16:08;;;;;;;;;;;;;;;22.95;66.34;100190.97;2036625;29;19916;-57
2022/06/06 00:17:09;;;;;;;;;;;;;;;22.97;66.41;100191.31;2038051;28;20005;-57
2022/06/06 00:18:09;;;;;;;;;;;;;;;22.98;66.71;100194.84;2037743;29;19920;-57
2022/06/06 00:19:10;;;;;;;;;;;;;;;22.96;66.98;100186.22;2036279;28;20253;-57
2022/06/06 00:20:11;;;;;;;;;;;;;;;22.97;66.96;100188.56;2038217;28;19910;-57
2022/06/06 00:21:12;;;;;;;;;;;;;;;22.96;67.00;100177.94;2037244;29;19940;-58
2022/06/06 00:22:12;;;;;;;;;;;;;;;22.96;66.96;100177.94;2036870;28;19924;-57
2022/06/06 00:23:12;;;;;;;;;;;;;;;22.93;66.82;100173.31;2029235;29;20260;-57
2022/06/06 00:24:12;;;;;;;;;;;;;;;22.92;66.21;100174.50;2029613;29;19915;-57
2022/06/06 00:25:14;;;;;;;;;;;;;;;22.92;65.98;100177.28;2038969;28;19920;-57
2022/06/06 00:26:15;;;;;;;;;;;;;;;22.90;66.06;100161.13;2037960;29;20008;-57
2022/06/06 00:27:16;;;;;;;;;;;;;;;22.89;66.11;100170.66;2037226;28;20220;-57
2022/06/06 00:28:16;;;;;;;;;;;;;;;22.88;66.21;100162.78;2037495;29;19932;-57
2022/06/06 00:29:18;;;;;;;;;;;;;;;22.86;65.89;100165.19;2038434;28;20281;-57
2022/06/06 00:30:19;;;;;;;;;;;;;;;22.87;65.84;100166.75;2037417;28;20285;-57
2022/06/06 00:35:21;;;;;;;;;;;;;;;22.87;66.09;100170.31;2030291;29;20177;-57
2022/06/06 00:36:22;;;;;;;;;;;;;;;22.88;66.22;100158.03;2038988;28;20009;-57
2022/06/06 00:37:32;;;;;;;;;;;;;;;22.87;66.44;100156.50;2039979;28;20001;-57
2022/06/06 00:38:32;;;;;;;;;;;;;;;22.88;66.56;100162.78;2036429;28;19914;-57
2022/06/06 00:39:33;;;;;;;;;;;;;;;22.89;66.20;100167.09;2038914;28;19914;-57
2022/06/06 00:40:33;;;;;;;;;;;;;;;22.89;65.95;100161.59;2038178;28;19914;-57
2022/06/06 00:41:44;;;;;;;;;;;;;;;22.88;66.01;100160.81;2028921;28;19937;-57
2022/06/06 00:42:45;;;;;;;;;;;;;;;22.88;66.53;100160.03;2032180;29;19918;-57
2022/06/06 00:44:00;;;;;;;;;;;;;;;22.88;66.43;100160.03;2035448;28;19907;-57
2022/06/06 00:45:19;;;;;;;;;;;;;;;22.87;66.47;100150.19;2037375;28;19914;-57
2022/06/06 00:46:20;;;;;;;;;;;;;;;22.87;66.49;100150.19;2042755;28;19913;-57
2022/06/06 00:47:24;;;;;;;;;;;;;;;22.88;66.36;100157.28;2033615;28;20562;-59
2022/06/06 00:48:38;;;;;;;;;;;;;;;22.87;66.66;100159.25;2037306;29;20904;-57
2022/06/06 00:49:41;;;;;;;;;;;;;;;22.86;66.32;100160.47;2036433;28;20263;-57
2022/06/06 00:50:54;;;;;;;;;;;;;;;22.87;66.23;100166.75;2036866;28;19911;-57
2022/06/06 00:51:54;;;;;;;;;;;;;;;22.86;66.16;100154.16;2036574;29;19914;-57
2022/06/06 00:52:55;;;;;;;;;;;;;;;22.87;66.13;100166.75;2033946;28;20392;-57
2022/06/06 00:53:55;;;;;;;;;;;;;;;22.87;65.84;100158.47;2038982;28;21677;-57
2022/06/06 00:54:57;;;;;;;;;;;;;;;22.86;65.71;100152.19;2027974;29;20150;-57
2022/06/06 00:56:02;;;;;;;;;;;;;;;22.87;65.63;100155.72;2028625;29;20211;-56
2022/06/06 00:57:05;;;;;;;;;;;;;;;22.86;65.50;100157.69;2037285;28;20293;-57
2022/06/06 00:58:08;;;;;;;;;;;;;;;22.86;65.60;100154.16;2034972;28;20238;-57
2022/06/06 00:59:16;;;;;;;;;;;;;;;22.85;65.48;100156.13;2037821;28;19911;-57
2022/06/06 01:00:18;;;;;;;;;;;;;;;22.85;65.42;100153.38;2027305;29;19922;-57
2022/06/06 01:01:20;;;;;;;;;;;;;;;22.85;65.49;100147.09;2036259;29;20232;-57
2022/06/06 01:02:21;;;;;;;;;;;;;;;22.85;65.70;100149.84;2037319;28;20114;-57
2022/06/06 01:03:24;;;;;;;;;;;;;;;22.83;65.76;100149.53;2019919;29;19914;-57
2022/06/06 01:04:26;;;;;;;;;;;;;;;22.83;65.76;100158.59;2020534;29;19967;-57
2022/06/06 01:05:27;;;;;;;;;;;;;;;22.83;65.71;100152.28;2037417;28;19915;-57
2022/06/06 01:06:29;;;;;;;;;;;;;;;22.83;65.57;100147.53;2036794;28;19906;-57
2022/06/06 01:07:29;;;;;;;;;;;;;;;22.83;65.59;100144.78;2036400;29;19907;-57
2022/06/06 01:08:31;;;;;;;;;;;;;;;22.83;65.82;100146.75;2036306;28;20224;-57
2022/06/06 01:09:31;;;;;;;;;;;;;;;22.81;66.01;100146.41;2038772;28;19915;-57
2022/06/06 01:10:31;;;;;;;;;;;;;;;22.81;66.07;100143.66;2035554;28;19915;-57
2022/06/06 01:11:37;;;;;;;;;;;;;;;22.80;66.13;100145.63;2037093;29;19914;-57
2022/06/06 01:12:39;;;;;;;;;;;;;;;22.80;66.08;100142.88;2027493;29;19921;-57
2022/06/06 01:13:41;;;;;;;;;;;;;;;22.79;65.78;100140.56;2028310;29;19978;-57
2022/06/06 01:14:45;;;;;;;;;;;;;;;22.80;65.87;100144.84;2036469;29;20155;-57
2022/06/06 01:15:54;;;;;;;;;;;;;;;22.80;65.92;100140.13;2038904;28;19985;-57
2022/06/06 01:17:03;;;;;;;;;;;;;;;22.79;66.27;100140.56;2035143;28;20311;-57
2022/06/06 01:18:08;;;;;;;;;;;;;;;22.78;66.45;100136.25;2039139;29;20070;-57
2022/06/06 01:19:11;;;;;;;;;;;;;;;22.79;66.30;100143.34;2037198;28;20771;-57
2022/06/06 01:20:14;;;;;;;;;;;;;;;22.79;66.05;100140.56;2036816;28;19994;-57
2022/06/06 01:21:17;;;;;;;;;;;;;;;22.79;66.44;100137.81;2036674;29;20206;-57
2022/06/06 01:22:20;;;;;;;;;;;;;;;22.79;66.38;100138.56;2036247;28;19928;-57
2022/06/06 01:23:20;;;;;;;;;;;;;;;22.77;66.57;100134.69;2034402;28;19915;-57
2022/06/06 01:24:36;;;;;;;;;;;;;;;22.77;66.38;100135.47;2036960;28;19925;-57
2022/06/06 01:25:55;;;;;;;;;;;;;;;22.76;66.32;100127.63;2037146;28;19907;-57
2022/06/06 01:27:06;;;;;;;;;;;;;;;22.76;66.28;100125.63;2035840;28;19917;-57
2022/06/06 01:28:25;;;;;;;;;;;;;;;22.76;66.24;100122.09;2037509;28;20425;-57
2022/06/06 01:29:29;;;;;;;;;;;;;;;22.74;66.60;100128.81;2029333;29;19906;-57
2022/06/06 01:30:38;;;;;;;;;;;;;;;22.74;66.41;100126.06;2035472;28;19956;-57
2022/06/06 01:31:43;;;;;;;;;;;;;;;22.74;66.53;100120.53;2036025;28;19964;-57
2022/06/06 01:32:48;;;;;;;;;;;;;;;22.74;66.33;100123.31;2036748;28;19914;-57
2022/06/06 01:33:53;;;;;;;;;;;;;;;22.75;66.27;100126.84;2042495;28;20347;-57
2022/06/06 01:34:54;;;;;;;;;;;;;;;22.73;65.52;100119.03;2033639;28;20001;-57
2022/06/06 01:35:59;;;;;;;;;;;;;;;22.73;65.51;100121.00;2037850;28;19925;-57
2022/06/06 01:37:00;;;;;;;;;;;;;;;22.72;65.64;100127.72;2040681;28;19925;-57
2022/06/06 01:38:01;;;;;;;;;;;;;;;22.70;65.36;100128.13;2040339;28;19978;-57
2022/06/06 01:39:04;;;;;;;;;;;;;;;22.65;65.63;100125.91;2038572;29;19949;-57
2022/06/06 01:40:07;;;;;;;;;;;;;;;22.68;65.36;100129.78;2033032;28;20464;-56
2022/06/06 01:41:09;;;;;;;;;;;;;;;22.67;65.45;100126.25;2040175;28;20724;-57
2022/06/06 01:42:17;;;;;;;;;;;;;;;22.68;65.44;100118.75;2033043;28;19953;-57
2022/06/06 01:43:20;;;;;;;;;;;;;;;22.71;65.33;100126.19;2033312;29;20152;-57
2022/06/06 01:44:37;;;;;;;;;;;;;;;22.70;65.09;100125.38;2030955;28;20017;-57
2022/06/06 01:45:52;;;;;;;;;;;;;;;22.70;65.34;100121.81;2036860;28;20535;-57
2022/06/06 01:46:54;;;;;;;;;;;;;;;22.68;65.54;100118.75;2039055;28;19973;-55
2022/06/06 01:48:10;;;;;;;;;;;;;;;22.67;65.40;100120.72;2035432;28;19921;-57
2022/06/06 01:49:12;;;;;;;;;;;;;;;22.68;65.23;100113.97;2038008;28;20317;-57
2022/06/06 01:50:12;;;;;;;;;;;;;;;22.68;65.17;100116.00;2038873;28;20017;-57
2022/06/06 01:51:14;;;;;;;;;;;;;;;22.67;65.31;100111.66;2041954;28;19914;-57
2022/06/06 01:52:15;;;;;;;;;;;;;;;22.67;65.49;100115.22;2044529;28;19917;-57
2022/06/06 01:53:17;;;;;;;;;;;;;;;22.67;65.42;100106.16;2036620;29;19914;-57
2022/06/06 01:54:17;;;;;;;;;;;;;;;22.68;65.58;100102.94;2035965;28;19940;-57
2022/06/06 01:55:18;;;;;;;;;;;;;;;22.68;65.48;100104.94;2020688;29;19922;-57
2022/06/06 01:56:21;;;;;;;;;;;;;;;22.68;65.47;100100.16;2026472;29;19914;-57
2022/06/06 01:57:22;;;;;;;;;;;;;;;22.67;65.51;100103.38;2036797;28;19914;-57
2022/06/06 01:58:25;;;;;;;;;;;;;;;22.69;65.33;100104.47;2043270;28;19914;-57
2022/06/06 01:59:26;;;;;;;;;;;;;;;22.67;65.29;100101.41;2037239;28;19914;-57
2022/06/06 02:00:27;;;;;;;;;;;;;;;22.67;65.50;100106.94;2036024;29;19914;-56
2022/06/06 02:01:27;;;;;;;;;;;;;;;22.67;65.36;100101.41;2036128;29;19922;-57
2022/06/06 02:02:27;;;;;;;;;;;;;;;22.66;65.45;100102.63;2035804;28;19918;-57
2022/06/06 02:03:27;;;;;;;;;;;;;;;22.67;65.55;100104.16;2036403;29;20435;-57
2022/06/06 02:04:28;;;;;;;;;;;;;;;22.66;65.49;100099.84;2031849;29;20327;-57
2022/06/06 02:05:28;;;;;;;;;;;;;;;22.65;65.49;100103.81;2034649;28;20117;-57
2022/06/06 02:06:29;;;;;;;4.65;2.05;;;;;;;22.66;65.60;100093.56;2039250;28;20463;-57
2022/06/06 02:07:29;;;;;;;;;;;;;;;22.63;65.53;100086.91;2038896;28;20214;-57
2022/06/06 02:08:30;;;;;;;;;;;;;;;22.63;65.58;100089.66;2045617;28;20399;-57
2022/06/06 02:09:32;;;;;;;;;;;;;;;22.61;65.61;100088.56;2035148;28;20230;-56
2022/06/06 02:10:33;;;;;;;;;;;;;;;22.59;65.74;100083.47;2036669;28;19960;-57
2022/06/06 02:11:33;;;;;;;;;;;;;;;22.58;65.51;100076.41;2042377;28;20489;-57
2022/06/06 02:12:33;;;;;;;;;;;;;;;22.60;65.46;100078.72;2038339;28;19921;-57
2022/06/06 02:13:33;;;;;;;;;;;;;;;22.60;65.33;100075.97;2042425;28;19920;-57
2022/06/06 02:14:34;;;;;;;;;;;;;;;22.60;65.14;100067.69;2040278;28;19914;-57
2022/06/06 02:15:35;;;;;;;;;;;;;;;22.61;65.33;100070.03;2038860;28;19913;-57
2022/06/06 02:16:35;;;;;;;;;;;;;;;22.61;65.43;100072.00;2041317;28;20336;-57
2022/06/06 02:17:36;;;;;;;;;;;;;;;22.62;65.48;100068.03;2035989;29;19969;-57
2022/06/06 02:18:36;;;;;;;;;;;;;;;22.61;65.40;100067.25;2024478;28;20081;-57
2022/06/06 02:19:37;;;;;;;;;;;;;;;22.60;65.57;100064.94;2021188;29;19907;-57
2022/06/06 02:20:38;;;;;;;;;;;;;;;22.59;65.38;100055.09;2028670;29;20448;-57
2022/06/06 02:21:39;;;;;;;;;;;;;;;22.59;65.41;100058.63;2036016;28;20367;-57
2022/06/06 02:22:39;;;;;;;;;;;;;;;22.59;65.44;100052.34;2037941;28;20373;-57
2022/06/06 02:23:39;;;;;;;;;;;;;;;22.59;65.41;100053.13;2033574;29;19965;-56
2022/06/06 02:24:40;;;;;;;;;;;;;;;22.59;65.40;100058.63;2036247;28;20003;-57
2022/06/06 02:25:40;;;;;;;;;;;;;;;22.59;65.25;100049.56;2034982;28;19914;-57
2022/06/06 02:26:41;;;;;;;;;;;;;;;22.59;65.33;100053.13;2036350;28;19918;-57
2022/06/06 02:27:42;;;;;;;;;;;;;;;22.58;65.29;100053.53;2034942;29;20965;-57
2022/06/06 02:28:42;;;;;;;;;;;;;;;22.57;65.35;100054.78;2036206;29;19918;-57
2022/06/06 02:29:43;;;;;;;;;;;;;;;22.58;65.06;100053.53;2035800;28;19930;-56
2022/06/06 02:30:44;;;;;;;;;;;;;;;22.57;64.92;100058.31;2036139;29;19929;-57
2022/06/06 02:31:44;;;;;;;;;;;;;;;22.56;65.02;100058.75;2036356;28;19973;-57
2022/06/06 02:32:44;;;;;;;;;;;;;;;22.56;65.12;100056.75;2035799;28;20340;-57
2022/06/06 02:33:45;;;;;;;;;;;;;;;22.55;65.32;100046.94;2036714;29;20337;-57
2022/06/06 02:34:45;;;;;;;;;;;;;;;22.55;65.19;100051.66;2035640;28;19921;-57
2022/06/06 02:35:45;;;;;;;;;;;;;;;22.56;65.15;100054.00;2039201;28;20116;-57
2022/06/06 02:36:46;;;;;;;;;;;;;;;22.55;65.22;100054.44;2034956;28;20171;-57
2022/06/06 02:37:46;;;;;;;;;;;;;;;22.54;64.94;100048.13;2040808;28;19918;-57
2022/06/06 02:38:47;;;;;;;;;;;;;;;22.54;64.78;100053.66;2039246;28;19914;-57
2022/06/06 02:39:47;;;;;;;;;;;;;;;22.54;65.22;100052.88;2035260;28;19914;-57
2022/06/06 02:40:47;;;;;;;;;;;;;;;22.54;65.22;100050.13;2040990;28;19913;-57
2022/06/06 02:41:48;;;;;;;;;;;;;;;22.54;65.22;100050.13;2035351;28;19953;-57
2022/06/06 02:42:48;;;;;;;;;;;;;;;22.53;65.12;100057.63;2036915;29;20261;-57
2022/06/06 02:43:48;;;;;;;;;;;;;;;22.53;65.28;100051.31;2035644;28;20312;-57
2022/06/06 02:44:49;;;;;;;;;;;;;;;22.53;65.27;100049.34;2030827;29;19972;-57
2022/06/06 02:45:50;;;;;;;;;;;;;;;22.53;65.27;100052.09;2037017;28;20309;-57
2022/06/06 02:46:50;;;;;;;;;;;;;;;22.52;65.19;100058.06;2033315;28;20051;-57
2022/06/06 02:47:53;;;;;;;;;;;;;;;22.51;65.23;100051.00;2039275;29;19914;-57
2022/06/06 02:48:53;;;;;;;;;;;;;;;22.51;65.10;100051.78;2034065;29;20304;-57
2022/06/06 02:49:54;;;;;;;;;;;;;;;22.51;65.33;100049.03;2035443;29;20421;-57
2022/06/06 02:50:54;;;;;;;;;;;;;;;22.50;65.39;100052.97;2038098;28;19936;-57
2022/06/06 02:51:55;;;;;;;;;;;;;;;22.51;65.20;100057.31;2039538;28;20505;-57
2022/06/06 02:52:56;;;;;;;;;;;;;;;22.51;65.12;100051.00;2036733;28;19965;-57
2022/06/06 02:53:56;;;;;;;;;;;;;;;22.50;65.14;100052.97;2043206;28;20044;-57
2022/06/06 02:54:57;;;;;;;;;;;;;;;22.50;65.25;100054.97;2035552;28;19941;-57
2022/06/06 02:55:58;;;;;;;;;;;;;;;22.49;65.14;100059.72;2036250;29;19915;-57
2022/06/06 02:56:58;;;;;;;;;;;;;;;22.51;65.02;100056.53;2035687;28;19950;-57
2022/06/06 02:58:00;;;;;;;;;;;;;;;22.50;65.23;100063.25;2035729;28;20348;-57
2022/06/06 02:59:02;;;;;;;;;;;;;;;22.51;64.95;100068.34;2036655;29;20317;-55
2022/06/06 03:00:04;;;;;;;;;;;;;;;22.50;65.07;100072.31;2035102;28;19914;-57
2022/06/06 03:01:07;;;;;;;;;;;;;;;22.50;65.22;100063.25;2031336;28;19969;-57
2022/06/06 03:02:08;;;;;;;;;;;;;;;22.47;65.16;100064.88;2034991;29;19925;-57
2022/06/06 03:03:09;;;;;;;;;;;;;;;22.48;65.15;100071.94;2035283;28;19946;-57
2022/06/06 03:04:09;;;;;;;;;;;;;;;22.48;65.23;100069.19;2036470;28;19914;-57
2022/06/06 03:05:10;;;;;;;;;;;;;;;22.46;65.23;100059.81;2036452;28;19953;-55
2022/06/06 03:06:10;;;;;;;;;;;;;;;22.46;65.28;100071.63;2036215;28;19970;-57
2022/06/06 03:07:17;;;;;;;;;;;;;;;22.46;65.19;100060.59;2036869;29;20732;-57
2022/06/06 03:08:26;;;;;;;;;;;;;;;22.46;65.28;100063.34;2036300;28;19921;-57
2022/06/06 03:09:33;;;;;;;;;;;;;;;22.44;65.30;100057.50;2034624;28;19914;-57
2022/06/06 03:10:42;;;;;;;;;;;;;;;22.44;65.21;100063.00;2036609;28;19927;-57
2022/06/06 03:11:45;;;;;;;;;;;;;;;22.44;65.15;100067.75;2040812;28;20901;-57
2022/06/06 03:12:45;;;;;;;;;;;;;;;22.43;65.20;100066.97;2039487;28;20226;-56
2022/06/06 03:14:04;;;;;;;;;;;;;;;22.43;65.30;100066.97;2036754;29;19984;-57
2022/06/06 03:15:18;;;;;;;;;;;;;;;22.42;65.25;100072.94;2028476;29;20243;-57
2022/06/06 03:21:11;;;;;;;;;;;;;;;22.40;65.37;100067.84;2036996;28;19962;-56
2022/06/06 03:22:22;;;;;;;;;;;;;;;22.40;65.29;100067.09;2035983;29;19922;-56
2022/06/06 03:23:28;;;;;;;;;;;;;;;22.40;65.14;100067.84;2028875;29;20331;-57
2022/06/06 03:24:28;;;;;;;;;;;;;;;22.42;65.35;100065.41;2033236;28;19910;-57
2022/06/06 03:25:36;;;;;;;;;;;;;;;22.41;65.25;100063.88;2035840;29;19948;-56
2022/06/06 03:26:56;;;;;;;;;;;;;;;22.42;65.16;100064.66;2027248;29;20026;-57
2022/06/06 03:28:20;;;;;;;;;;;;;;;22.40;65.25;100056.03;2034445;29;20335;-57
2022/06/06 03:29:35;;;;;;;;;;;;;;;22.40;65.15;100067.09;2035585;28;19914;-57
2022/06/06 03:30:54;;;;;;;;;;;;;;;22.40;65.08;100058.81;2035463;28;19922;-57
2022/06/06 03:32:03;;;;;;;;;;;;;;;22.39;65.22;100066.31;2037371;29;19914;-57
2022/06/06 03:33:36;;;;;;;;;;;;;;;22.38;65.20;100061.22;2031718;29;19906;-57
2022/06/06 03:34:40;;;;;;;;;;;;;;;22.36;65.08;100063.66;2000767;29;20342;-57
2022/06/06 03:35:51;;;;;;;;;;;;;;;22.36;65.06;100053.38;2024270;28;19910;-57
2022/06/06 03:37:01;;;;;;;;;;;;;;;22.36;64.98;100061.66;2035172;28;19925;-57
2022/06/06 03:38:05;;;;;;;;;;;;;;;22.34;65.12;100058.56;2028215;29;20377;-57
2022/06/06 03:39:20;;;;;;;;;;;;;;;22.33;65.11;100065.28;2039562;28;19921;-56
2022/06/06 03:40:29;;;;;;;;;;;;;;;22.31;65.16;100056.69;2037484;28;19918;-57
2022/06/06 03:41:40;;;;;;;;;;;;;;;22.33;65.22;100057.00;2037364;28;19915;-56
2022/06/06 03:42:59;;;;;;;;;;;;;;;22.33;65.16;100059.75;2026613;29;20170;-57
2022/06/06 03:44:02;;;;;;;;;;;;;;;22.31;65.04;100046.41;2029087;29;19915;-56
2022/06/06 03:45:21;;;;;;;;;;;;;;;22.31;65.10;100056.69;2035336;29;19911;-57
2022/06/06 03:46:32;;;;;;;;;;;;;;;22.30;65.04;100058.66;2029718;29;19922;-57
2022/06/06 03:47:48;;;;;;;;;;;;;;;22.29;65.04;100065.38;2034640;29;19945;-57
2022/06/06 03:48:54;;;;;;;;;;;;;;;22.30;65.21;100060.66;2040780;28;20021;-57
2022/06/06 03:49:59;;;;;;;;;;;;;;;22.31;65.02;100053.94;2037934;28;20189;-57
2022/06/06 03:51:13;;;;;;;;;;;;;;;22.31;65.04;100056.69;2039331;28;19921;-57
2022/06/06 03:52:30;;;;;;;;;;;;;;;22.29;65.01;100057.09;2030890;29;19946;-57
2022/06/06 03:53:48;;;;;;;;;;;;;;;22.30;64.99;100063.41;2036109;29;20346;-56
2022/06/06 03:54:49;;;;;;;;;;;;;;;22.29;65.13;100061.84;2033801;28;20259;-57
2022/06/06 03:56:08;;;;;;;;;;;;;;;22.29;65.09;100068.16;2038163;29;19915;-57
2022/06/06 03:57:18;;;;;;;;;;;;;;;22.30;64.96;100064.19;2036243;29;20325;-57
2022/06/06 03:58:21;;;;;;;;;;;;;;;22.28;64.73;100066.59;2036641;28;19927;-57
2022/06/06 03:59:22;;;;;;;;;;;;;;;22.27;64.86;100054.00;2036974;28;20444;-57
2022/06/06 04:00:22;;;;;;;;;;;;;;;22.28;65.05;100063.06;2037955;29;20200;-57
2022/06/06 04:01:23;;;;;;;;;;;;;;;22.29;64.92;100070.13;2036791;28;19938;-57
2022/06/06 04:02:28;;;;;;;;;;;;;;;22.27;65.05;100067.78;2037818;28;19918;-57
2022/06/06 04:03:31;;;;;;;;;;;;;;;22.28;64.84;100072.09;2037024;29;19921;-56
2022/06/06 04:04:32;;;;;;;;;;;;;;;22.27;64.83;100075.28;2036317;28;20513;-57
2022/06/06 04:05:36;;;;;;;;;;;;;;;22.27;64.96;100075.28;2038209;28;19992;-57
2022/06/06 04:06:36;;;;;;;;;;;;;;;22.27;64.96;100075.28;2034321;29;20139;-57
2022/06/06 04:07:37;;;;;;;;;;;;;;;22.28;65.05;100076.84;2038164;28;20207;-56
2022/06/06 04:08:37;;;;;;;;;;;;;;;22.27;64.92;100081.59;2037857;29;20012;-56
2022/06/06 04:09:37;;;;;;;;;;;;;;;22.27;64.82;100083.56;2038118;28;20436;-57
2022/06/06 04:10:49;;;;;;;;;;;;;;;22.27;64.78;100080.81;2038047;28;19914;-57
2022/06/06 04:12:08;;;;;;;;;;;;;;;22.27;65.04;100080.81;2034761;28;19938;-57
2022/06/06 04:13:21;;;;;;;;;;;;;;;22.25;64.91;100084.03;2036679;28;19907;-56
2022/06/06 04:14:41;;;;;;;;;;;;;;;22.26;64.86;100085.56;2035523;28;20070;-57
2022/06/06 04:15:45;;;;;;;;;;;;;;;22.25;65.10;100088.75;2035895;28;19911;-57
2022/06/06 04:16:51;;;;;;;;;;;;;;;22.25;64.85;100080.50;2037438;29;20430;-57
2022/06/06 04:17:57;;;;;;;;;;;;;;;22.25;64.79;100080.50;2035455;28;19929;-57
2022/06/06 04:19:05;;;;;;;;;;;;;;;22.23;64.91;100080.91;2036278;28;20287;-56
2022/06/06 04:20:12;;;;;;;;;;;;;;;22.24;64.84;100078.94;2038801;29;19903;-57
2022/06/06 04:21:31;;;;;;;;;;;;;;;22.24;64.80;100079.72;2035211;28;20648;-57
2022/06/06 04:22:37;;;;;;;;;;;;;;;22.24;64.96;100082.47;2037235;28;19926;-57
2022/06/06 04:23:40;;;;;;;;;;;;;;;22.22;64.91;100079.34;2037335;28;19960;-57
2022/06/06 04:24:50;;;;;;;;;;;;;;;22.23;64.91;100083.69;2029887;29;20146;-57
2022/06/06 04:26:01;;;;;;;;;;;;;;;22.21;65.03;100083.31;2038114;28;19937;-57
2022/06/06 04:27:04;;;;;;;;;;;;;;;22.22;64.88;100084.09;2039469;28;19914;-57
2022/06/06 04:28:08;;;;;;;;;;;;;;;22.23;64.97;100085.66;2044506;28;19922;-57
2022/06/06 04:29:14;;;;;;;;;;;;;;;22.23;64.76;100082.91;2034394;28;19914;-57
2022/06/06 04:30:14;;;;;;;;;;;;;;;22.22;64.57;100081.34;2037456;29;20388;-56
2022/06/06 04:31:15;;;;;;;;;;;;;;;22.24;64.54;100078.94;2044780;28;19913;-57
2022/06/06 04:32:34;;;;;;;;;;;;;;;22.23;64.90;100078.16;2035910;29;19918;-56
2022/06/06 04:33:37;;;;;;;;;;;;;;;22.22;64.77;100078.59;2036068;28;19911;-57
2022/06/06 04:34:38;;;;;;;;;;;;;;;22.20;64.80;100084.56;2030149;29;19922;-56
2022/06/06 04:35:50;;;;;;;;;;;;;;;22.23;64.66;100071.88;2027137;29;19915;-57
2022/06/06 04:37:13;;;;;;;;;;;;;;;22.18;64.56;100077.91;2035463;28;19906;-56
2022/06/06 04:38:13;;;;;;;;;;;;;;;22.17;64.50;100074.38;2035637;29;20009;-57
2022/06/06 04:39:20;;;;;;;;;;;;;;;22.16;64.40;100077.56;2041567;28;19913;-56
2022/06/06 04:40:35;;;;;;;;;;;;;;;22.15;64.70;100073.28;2037312;28;19956;-57
2022/06/06 04:41:36;;;;;;;;;;;;;;;22.17;64.79;100076.34;2039779;28;20144;-57
2022/06/06 04:42:52;;;;;;;;;;;;;;;22.16;64.84;100080.31;2038627;28;20001;-56
2022/06/06 04:43:52;;;;;;;;;;;;;;;22.17;64.78;100081.88;2036368;28;20345;-57
2022/06/06 04:45:12;;;;;;;;;;;;;;;22.17;64.58;100073.59;2036706;29;19961;-57
2022/06/06 04:46:26;;;;;;;;;;;;;;;22.17;64.59;100081.88;2036866;28;20295;-57
2022/06/06 04:47:32;;;;;;;;;;;;;;;22.16;64.56;100069.28;2040501;28;19933;-57
2022/06/06 04:48:34;;;;;;;;;;;;;;;22.19;64.57;100079.47;2039170;28;20231;-57
2022/06/06 04:49:35;;;;;;;;;;;;;;;22.16;64.48;100083.06;2040604;28;19914;-56
2022/06/06 04:50:39;;;;;;;;;;;;;;;22.15;64.38;100084.31;2037385;28;20125;-57
2022/06/06 04:51:42;;;;;;;;;;;;;;;22.14;64.67;100083.53;2036023;28;19918;-57
2022/06/06 04:52:45;;;;;;;;;;;;;;;22.14;64.45;100074.47;2036922;28;20346;-57
2022/06/06 04:53:46;;;;;;;;;;;;;;;22.16;64.55;100083.06;2036013;29;19913;-57
2022/06/06 04:54:47;;;;;;;;;;;;;;;22.16;64.40;100074.78;2036452;28;19906;-56
2022/06/06 04:55:49;;;;;;;;;;;;;;;22.14;64.51;100072.50;2038113;28;20048;-57
2022/06/06 04:56:50;;;;;;;;;;;;;;;22.15;64.47;100065.00;2026945;29;19982;-57
2022/06/06 04:57:53;;;;;;;;;;;;;;;22.14;64.57;100078.00;2030906;29;19914;-57
2022/06/06 04:58:55;;;;;;;;;;;;;;;22.12;64.52;100085.16;2037682;28;20775;-57
2022/06/06 04:59:57;;;;;;;;;;;;;;;22.12;64.82;100076.88;2034628;28;19961;-57
2022/06/06 05:01:00;;;;;;;;;;;;;;;22.11;64.38;100067.84;2035254;28;19918;-56
2022/06/06 05:02:05;;;;;;;;;;;;;;;22.12;64.42;100074.13;2039507;28;19950;-56
2022/06/06 05:03:05;;;;;;;;;;;;;;;22.12;64.70;100069.38;2036163;28;20332;-57
2022/06/06 05:04:06;;;;;;;;;;;;;;;22.12;64.71;100069.38;2036921;28;19914;-57
2022/06/06 05:05:06;;;;;;;;;;;;;;;22.12;64.67;100069.38;2036345;29;20692;-57
2022/06/06 05:06:19;;;;;;;;;;;;;;;22.12;64.44;100068.59;2037049;28;19914;-56
2022/06/06 05:07:32;;;;;;;;;;;;;;;22.12;64.60;100063.88;2034868;29;19923;-56
2022/06/06 05:08:35;;;;;;;;;;;;;;;22.11;64.89;100069.81;2035001;28;19937;-57
2022/06/06 05:09:41;;;;;;;;;;;;;;;22.12;64.79;100068.59;2037659;28;19921;-57
2022/06/06 05:10:50;;;;;;;;;;;;;;;22.11;64.77;100062.31;2041426;28;19918;-57
2022/06/06 05:12:01;;;;;;;;;;;;;;;22.12;64.63;100061.09;2033348;28;20266;-57
2022/06/06 05:13:08;;;;;;;;;;;;;;;22.12;64.60;100065.84;2035701;29;19914;-56
2022/06/06 05:14:19;;;;;;;;;;;;;;;22.11;64.73;100062.31;2038614;28;19914;-57
2022/06/06 05:15:19;;;;;;;;;;;;;;;22.12;64.69;100068.59;2038056;28;19928;-57
2022/06/06 05:16:20;;;;;;;;;;;;;;;22.11;64.91;100065.06;2035250;28;19910;-57
2022/06/06 05:17:26;;;;;;;;;;;;;;;22.11;64.57;100076.09;2037111;28;19911;-57
2022/06/06 05:18:43;;;;;;;;;;;;;;;22.11;64.69;100067.06;2037714;28;19945;-57
2022/06/06 05:19:52;;;;;;;;;;;;;;;22.11;64.80;100067.84;2036862;28;20465;-57
2022/06/06 05:20:58;;;;;;;;;;;;;;;22.09;64.48;100075.00;2036547;28;20499;-56
2022/06/06 05:22:07;;;;;;;;;;;;;;;22.10;64.66;100068.28;2037707;28;20594;-56
2022/06/06 05:23:26;;;;;;;;;;;;;;;22.09;64.64;100064.75;2036938;28;19920;-57
2022/06/06 05:24:27;;;;;;;;;;;;;;;22.10;64.72;100073.81;2035444;29;19999;-56
2022/06/06 05:25:27;;;;;;;;;;;;;;;22.08;64.63;100074.22;2034068;28;19918;-56
2022/06/06 05:26:33;;;;;;;;;;;;;;;22.09;64.89;100075.00;2038064;28;20430;-57
2022/06/06 05:27:52;;;;;;;;;;;;;;;22.10;64.75;100076.56;2036059;28;19914;-56
2022/06/06 05:29:18;;;;;;;;;;;;;;;22.10;65.01;100082.06;2031693;29;19914;-57
2022/06/06 05:30:32;;;;;;;;;;;;;;;22.09;64.71;100086.81;2020571;29;19960;-56
2022/06/06 05:31:51;;;;;;;;;;;;;;;22.09;64.91;100084.06;2027917;29;20352;-57
2022/06/06 05:32:51;;;;;;;;;;;;;;;22.10;64.80;100084.84;2029077;29;19922;-57
2022/06/06 05:33:59;;;;;;;;;;;;;;;22.09;64.76;100092.34;2036132;28;19946;-57
2022/06/06 05:35:05;;;;;;;;;;;;;;;22.10;64.73;100084.84;2036644;29;19922;-58
2022/06/06 05:36:15;;;;;;;;;;;;;;;22.09;64.93;100083.28;2036418;28;19981;-57
2022/06/06 05:37:22;;;;;;;;;;;;;;;22.09;64.96;100080.53;2038541;28;19921;-56
2022/06/06 05:38:32;;;;;;;;;;;;;;;22.08;65.00;100085.25;2026225;29;20500;-57
2022/06/06 05:39:58;;;;;;;;;;;;;;;22.08;65.06;100081.72;2029588;29;19961;-56
2022/06/06 05:40:59;;;;;;;;;;;;;;;22.07;65.21;100082.94;1999588;29;20603;-57
2022/06/06 05:41:59;;;;;;;;;;;;;;;22.09;65.23;100083.28;2035283;28;19918;-57